createdAt,value
2022-10-10T00:06:49.314Z,8.98
2022-10-10T00:11:53.995Z,8.90
2022-10-10T00:22:00.465Z,8.82
2022-10-10T00:27:05.197Z,4.72
2022-10-10T00:37:11.547Z,7.53
2022-10-10T00:42:17.297Z,5.70
2022-10-10T00:47:21.268Z,4.78
2022-10-10T00:52:24.698Z,4.00
2022-10-10T00:57:29.543Z,7.15
2022-10-10T01:07:36.536Z,4.05
2022-10-10T01:12:57.527Z,6.05
2022-10-10T01:18:09.565Z,4.13
2022-10-10T01:23:39.967Z,6.07
2022-10-10T01:28:51.962Z,5.57
2022-10-10T01:34:05.221Z,5.60
2022-10-10T01:39:15.304Z,3.70
2022-10-10T01:44:22.503Z,6.03
2022-10-10T01:49:30.913Z,4.35
2022-10-10T01:54:41.209Z,5.47
2022-10-10T02:00:04.400Z,8.00
2022-10-10T02:05:19.387Z,5.50
2022-10-10T02:10:27.329Z,6.50
2022-10-10T02:15:39.798Z,7.70
2022-10-10T02:20:45.205Z,5.45
2022-10-10T02:25:53.654Z,6.88
2022-10-10T02:31:03.537Z,5.78
2022-10-10T02:36:07.703Z,6.45
2022-10-10T02:41:16.271Z,6.78
2022-10-10T02:46:21.252Z,3.88
2022-10-10T02:51:28.504Z,6.70
2022-10-10T02:56:33.949Z,6.30
2022-10-10T03:01:38.748Z,7.18
2022-10-10T03:11:45.164Z,6.70
2022-10-10T03:16:49.833Z,5.10
2022-10-10T03:21:53.109Z,7.50
2022-10-10T03:26:56.475Z,4.70
2022-10-10T03:32:01.233Z,4.85
2022-10-10T03:42:07.705Z,4.05
2022-10-10T03:47:12.404Z,3.88
2022-10-10T03:52:15.774Z,4.68
2022-10-10T03:57:19.178Z,6.55
2022-10-10T04:02:24.096Z,4.90
2022-10-10T04:12:30.465Z,5.63
2022-10-10T04:17:35.206Z,7.90
2022-10-10T04:22:38.572Z,6.13
2022-10-10T04:27:43.726Z,5.80
2022-10-10T04:32:48.632Z,4.70
2022-10-10T04:37:52.517Z,4.55
2022-10-10T04:42:56.344Z,5.57
2022-10-10T04:48:01.191Z,7.60
2022-10-10T04:58:07.716Z,6.07
2022-10-10T05:03:13.129Z,4.13
2022-10-10T05:08:16.551Z,4.88
2022-10-10T05:13:19.889Z,4.72
2022-10-10T05:18:24.983Z,7.00
2022-10-10T05:23:28.295Z,10.40
2022-10-10T05:28:32.062Z,5.68
2022-10-10T05:33:36.893Z,5.30
2022-10-10T05:43:43.822Z,4.72
2022-10-10T05:48:48.600Z,4.22
2022-10-10T05:58:55.202Z,6.22
2022-10-10T06:03:59.980Z,5.82
2022-10-10T06:14:06.534Z,8.30
2022-10-10T06:19:14.824Z,3.60
2022-10-10T06:24:18.743Z,5.22
2022-10-10T06:29:22.065Z,3.95
2022-10-10T06:34:26.836Z,4.70
2022-10-10T06:39:30.365Z,4.07
2022-10-10T06:44:33.739Z,4.27
2022-10-10T06:49:38.563Z,3.90
2022-10-10T06:54:42.035Z,3.90
2022-10-10T06:59:45.447Z,3.70
2022-10-10T07:04:50.339Z,3.72
2022-10-10T07:09:53.668Z,3.20
2022-10-10T07:14:57.120Z,3.42
2022-10-10T07:20:01.844Z,3.80
2022-10-10T07:25:07.318Z,5.15
2022-10-10T07:30:11.514Z,4.03
2022-10-10T07:35:16.841Z,2.80
2022-10-10T07:40:20.331Z,5.50
2022-10-10T07:45:23.731Z,2.83
2022-10-10T07:50:28.538Z,3.42
2022-10-10T07:55:32.050Z,4.75
2022-10-10T08:00:36.638Z,3.33
2022-10-10T08:05:42.828Z,4.40
2022-10-10T08:10:46.324Z,5.25
2022-10-10T08:15:52.379Z,4.20
2022-10-10T08:21:08.521Z,3.65
2022-10-10T08:26:13.655Z,7.88
2022-10-10T08:31:18.840Z,4.28
2022-10-10T08:36:25.139Z,5.40
2022-10-10T08:41:39.459Z,3.08
2022-10-10T08:46:46.024Z,2.55
2022-10-10T08:51:57.057Z,5.13
2022-10-10T08:57:05.527Z,2.20
2022-10-10T09:02:50.062Z,3.55
2022-10-10T09:08:13.606Z,3.42
2022-10-10T09:13:26.885Z,2.85
2022-10-10T09:18:59.590Z,3.67
2022-10-10T09:24:11.426Z,3.20
2022-10-10T09:29:29.279Z,6.00
2022-10-10T09:34:38.108Z,2.63
2022-10-10T09:39:50.209Z,2.42
2022-10-10T09:44:53.858Z,3.60
2022-10-10T09:49:57.742Z,2.25
2022-10-10T09:55:06.031Z,3.70
2022-10-10T10:00:34.194Z,5.07
2022-10-10T10:05:37.739Z,4.13
2022-10-10T10:10:42.707Z,3.58
2022-10-10T10:15:50.126Z,2.70
2022-10-10T10:20:56.532Z,2.47
2022-10-10T10:26:03.181Z,2.97
2022-10-10T10:31:07.010Z,3.17
2022-10-10T10:36:24.927Z,3.20
2022-10-10T10:41:36.959Z,2.90
2022-10-10T10:46:51.517Z,3.58
2022-10-10T10:52:22.951Z,3.10
2022-10-10T10:57:51.116Z,2.00
2022-10-10T11:03:35.115Z,2.97
2022-10-10T11:08:49.474Z,2.92
2022-10-10T11:14:01.095Z,4.28
2022-10-10T11:19:17.207Z,4.65
2022-10-10T11:24:30.411Z,2.83
2022-10-10T11:29:49.904Z,3.30
2022-10-10T11:35:04.331Z,4.78
2022-10-10T11:40:25.170Z,2.33
2022-10-10T11:45:34.551Z,3.30
2022-10-10T11:50:41.700Z,4.18
2022-10-10T11:55:50.551Z,2.85
2022-10-10T12:00:59.414Z,6.07
2022-10-10T12:06:10.103Z,10.00
2022-10-10T12:11:19.786Z,3.55
2022-10-10T12:16:30.692Z,3.92
2022-10-10T12:21:54.456Z,3.22
2022-10-10T12:27:30.567Z,5.47
2022-10-10T12:32:44.047Z,6.55
2022-10-10T12:38:09.981Z,3.13
2022-10-10T12:43:24.570Z,4.47
2022-10-10T12:48:29.558Z,6.82
2022-10-10T12:53:35.442Z,5.57
2022-10-10T12:58:40.920Z,5.82
2022-10-10T13:03:48.502Z,4.78
2022-10-10T13:08:52.937Z,2.75
2022-10-10T13:13:57.880Z,3.60
2022-10-10T13:19:02.727Z,3.25
2022-10-10T13:29:23.912Z,3.23
2022-10-10T13:34:31.381Z,5.28
2022-10-10T13:39:38.471Z,3.65
2022-10-10T13:44:50.318Z,2.38
2022-10-10T13:49:59.023Z,5.90
2022-10-10T13:55:16.530Z,3.00
2022-10-10T14:00:23.113Z,4.60
2022-10-10T14:05:30.674Z,9.45
2022-10-10T14:10:37.124Z,4.82
2022-10-10T14:15:46.369Z,4.18
2022-10-10T14:20:51.950Z,5.65
2022-10-10T14:25:55.376Z,5.65
2022-10-10T14:30:58.743Z,6.38
2022-10-10T14:36:03.663Z,6.57
2022-10-10T14:46:18.253Z,5.30
2022-10-10T14:51:34.158Z,4.80
2022-10-10T14:57:07.254Z,3.55
2022-10-10T15:02:02.767Z,4.88
2022-10-10T15:07:13.571Z,4.67
2022-10-10T15:12:18.012Z,7.93
2022-10-10T15:17:21.613Z,5.15
2022-10-10T15:22:27.577Z,6.47
2022-10-10T15:27:32.842Z,6.53
2022-10-10T15:32:40.226Z,8.52
2022-10-10T15:37:45.617Z,10.30
2022-10-10T15:42:49.724Z,9.75
2022-10-10T15:47:53.085Z,9.60
2022-10-10T15:52:57.822Z,8.38
2022-10-10T15:58:03.493Z,11.07
2022-10-10T16:03:07.235Z,8.35
2022-10-10T16:08:12.581Z,8.80
2022-10-10T16:13:15.930Z,10.60
2022-10-10T16:18:19.667Z,18.98
2022-10-10T16:23:24.877Z,13.55
2022-10-10T16:28:28.586Z,15.25
2022-10-10T16:33:33.686Z,16.65
2022-10-10T16:38:39.191Z,12.63
2022-10-10T16:43:44.440Z,12.18
2022-10-10T16:48:48.519Z,9.57
2022-10-10T16:53:53.427Z,10.43
2022-10-10T17:04:01.366Z,9.52
2022-10-10T17:09:08.050Z,10.80
2022-10-10T17:14:11.901Z,8.20
2022-10-10T17:19:15.465Z,8.77
2022-10-10T17:24:20.275Z,10.95
2022-10-10T17:29:23.823Z,7.85
2022-10-10T17:34:27.488Z,9.07
2022-10-10T17:39:32.463Z,7.90
2022-10-10T17:44:42.016Z,7.50
2022-10-10T17:49:49.868Z,9.65
2022-10-10T17:54:55.617Z,8.38
2022-10-10T18:00:00.025Z,7.80
2022-10-10T18:05:03.493Z,10.90
2022-10-10T18:10:09.316Z,9.05
2022-10-10T18:15:12.767Z,8.27
2022-10-10T18:20:16.702Z,8.38
2022-10-10T18:25:25.051Z,7.90
2022-10-10T18:30:29.966Z,7.97
2022-10-10T18:35:33.363Z,10.23
2022-10-10T18:40:38.122Z,7.13
2022-10-10T18:45:41.525Z,9.32
2022-10-10T18:50:44.849Z,10.02
2022-10-10T18:55:57.253Z,8.93
2022-10-10T19:01:01.413Z,7.97
2022-10-10T19:06:06.170Z,12.18
2022-10-10T19:11:20.310Z,10.82
2022-10-10T19:16:23.729Z,11.93
2022-10-10T19:21:28.415Z,11.30
2022-10-10T19:26:34.204Z,11.65
2022-10-10T19:31:39.034Z,6.65
2022-10-10T19:41:47.202Z,7.47
2022-10-10T19:46:50.570Z,8.68
2022-10-10T19:51:54.753Z,13.57
2022-10-10T19:56:59.494Z,13.57
2022-10-10T20:02:03.068Z,13.02
2022-10-10T20:07:06.472Z,12.32
2022-10-10T20:12:11.569Z,17.52
2022-10-10T20:17:15.245Z,15.85
2022-10-10T20:22:18.667Z,19.95
2022-10-10T20:27:25.724Z,17.70
2022-10-10T20:32:32.296Z,18.60
2022-10-10T20:37:35.820Z,15.48
2022-10-10T20:42:40.532Z,16.38
2022-10-10T20:47:43.793Z,15.32
2022-10-10T20:52:47.167Z,15.93
2022-10-10T20:57:51.942Z,14.60
2022-10-10T21:02:55.918Z,11.52
2022-10-10T21:07:59.249Z,10.33
2022-10-10T21:13:03.989Z,11.48
2022-10-10T21:18:07.480Z,10.95
2022-10-10T21:23:10.832Z,8.95
2022-10-10T21:28:15.721Z,10.00
2022-10-10T21:38:23.780Z,8.80
2022-10-10T21:43:28.494Z,11.95
2022-10-10T21:48:31.847Z,12.77
2022-10-10T21:53:35.278Z,10.38
2022-10-10T21:58:41.756Z,14.45
2022-10-10T22:03:45.879Z,26.85
2022-10-10T22:08:50.785Z,23.55
2022-10-10T22:13:55.820Z,22.70
2022-10-10T22:18:59.726Z,19.63
2022-10-10T22:24:06.325Z,16.80
2022-10-10T22:29:11.084Z,12.80
2022-10-10T22:34:15.277Z,12.90
2022-10-10T22:39:18.854Z,13.93
2022-10-10T22:44:23.535Z,12.10
2022-10-10T22:49:27.469Z,10.27
2022-10-10T22:54:30.785Z,12.73
2022-10-10T22:59:35.550Z,11.73
2022-10-10T23:04:38.887Z,14.10
2022-10-10T23:09:42.343Z,15.27
2022-10-10T23:14:52.740Z,14.75
2022-10-10T23:19:56.014Z,16.20
2022-10-10T23:24:59.468Z,11.85
2022-10-10T23:35:10.200Z,13.95
2022-10-10T23:40:13.545Z,10.77
2022-10-10T23:45:18.318Z,14.15
2022-10-10T23:50:21.627Z,12.82
2022-10-10T23:55:25.100Z,12.65
